sensor_id;sensor_type;location;lat;lon;timestamp;pressure;altitude;pressure_sealevel;temperature;humidity
20003;BME280;10162;41.600;23.806;2023-01-24T00:01:00;96025.13;;;6.96;100.00
20003;BME280;10162;41.600;23.806;2023-01-24T00:03:35;96019.13;;;6.95;100.00
20003;BME280;10162;41.600;23.806;2023-01-24T00:13:58;96047.75;;;6.78;100.00
20003;BME280;10162;41.600;23.806;2023-01-24T00:16:24;96004.28;;;6.52;100.00
20003;BME280;10162;41.600;23.806;2023-01-24T00:19:26;96050.31;;;6.95;100.00
20003;BME280;10162;41.600;23.806;2023-01-24T00:25:27;96034.66;;;6.87;100.00
20003;BME280;10162;41.600;23.806;2023-01-24T00:28:16;96049.34;;;6.79;100.00
20003;BME280;10162;41.600;23.806;2023-01-24T00:30:42;96024.13;;;6.53;100.00
20003;BME280;10162;41.600;23.806;2023-01-24T00:33:07;96007.13;;;6.41;100.00
20003;BME280;10162;41.600;23.806;2023-01-24T00:35:33;96048.91;;;6.66;100.00
20003;BME280;10162;41.600;23.806;2023-01-24T00:38:06;96022.25;;;6.63;100.00
20003;BME280;10162;41.600;23.806;2023-01-24T00:40:48;96032.44;;;6.75;100.00
20003;BME280;10162;41.600;23.806;2023-01-24T00:43:22;96024.63;;;6.75;100.00
20003;BME280;10162;41.600;23.806;2023-01-24T00:45:49;96040.97;;;6.67;100.00
20003;BME280;10162;41.600;23.806;2023-01-24T00:48:26;96029.69;;;6.76;100.00
20003;BME280;10162;41.600;23.806;2023-01-24T00:51:11;96055.00;;;6.92;100.00
20003;BME280;10162;41.600;23.806;2023-01-24T00:53:38;96042.31;;;6.71;100.00
20003;BME280;10162;41.600;23.806;2023-01-24T00:56:05;96042.53;;;6.60;100.00
20003;BME280;10162;41.600;23.806;2023-01-24T00:58:45;96030.56;;;6.49;100.00
20003;BME280;10162;41.600;23.806;2023-01-24T01:01:11;96045.16;;;6.78;100.00
20003;BME280;10162;41.600;23.806;2023-01-24T01:10:26;96018.69;;;6.47;100.00
20003;BME280;10162;41.600;23.806;2023-01-24T01:12:52;96042.91;;;6.65;100.00
20003;BME280;10162;41.600;23.806;2023-01-24T01:15:42;96060.34;;;6.73;100.00
20003;BME280;10162;41.600;23.806;2023-01-24T01:26:33;96038.16;;;6.60;100.00
20003;BME280;10162;41.600;23.806;2023-01-24T01:32:21;96050.53;;;6.67;100.00
20003;BME280;10162;41.600;23.806;2023-01-24T01:34:47;96055.13;;;6.73;100.00
20003;BME280;10162;41.600;23.806;2023-01-24T01:40:30;96024.03;;;6.45;100.00
20003;BME280;10162;41.600;23.806;2023-01-24T01:43:08;96039.63;;;6.63;100.00
20003;BME280;10162;41.600;23.806;2023-01-24T01:45:59;96065.34;;;6.66;100.00
20003;BME280;10162;41.600;23.806;2023-01-24T01:51:10;96058.13;;;6.60;100.00
20003;BME280;10162;41.600;23.806;2023-01-24T01:53:44;96031.97;;;6.44;100.00
20003;BME280;10162;41.600;23.806;2023-01-24T01:56:41;96065.16;;;6.68;100.00
20003;BME280;10162;41.600;23.806;2023-01-24T02:02:24;96032.84;;;6.35;100.00
20003;BME280;10162;41.600;23.806;2023-01-24T02:05:26;96074.91;;;6.83;100.00
20003;BME280;10162;41.600;23.806;2023-01-24T02:08:12;96070.59;;;6.92;100.00
20003;BME280;10162;41.600;23.806;2023-01-24T02:10:45;96056.31;;;6.78;100.00
20003;BME280;10162;41.600;23.806;2023-01-24T02:13:30;96046.25;;;6.75;100.00
20003;BME280;10162;41.600;23.806;2023-01-24T02:16:03;96023.34;;;6.61;100.00
20003;BME280;10162;41.600;23.806;2023-01-24T02:22:48;96072.59;;;6.98;100.00
20003;BME280;10162;41.600;23.806;2023-01-24T02:28:18;96037.03;;;6.81;100.00
20003;BME280;10162;41.600;23.806;2023-01-24T02:30:44;96059.50;;;7.07;100.00
20003;BME280;10162;41.600;23.806;2023-01-24T02:33:16;96063.63;;;6.92;100.00
20003;BME280;10162;41.600;23.806;2023-01-24T02:35:46;96076.06;;;7.06;100.00
20003;BME280;10162;41.600;23.806;2023-01-24T02:43:07;96075.84;;;7.18;100.00
20003;BME280;10162;41.600;23.806;2023-01-24T02:45:25;96060.09;;;7.19;100.00
20003;BME280;10162;41.600;23.806;2023-01-24T02:48:18;96067.47;;;7.06;100.00
20003;BME280;10162;41.600;23.806;2023-01-24T02:50:47;96050.97;;;6.97;100.00
20003;BME280;10162;41.600;23.806;2023-01-24T02:53:32;96050.47;;;6.94;100.00
20003;BME280;10162;41.600;23.806;2023-01-24T02:56:04;96027.38;;;6.73;100.00
20003;BME280;10162;41.600;23.806;2023-01-24T03:02:26;96038.72;;;6.72;100.00
20003;BME280;10162;41.600;23.806;2023-01-24T03:04:55;96040.97;;;6.67;100.00
20003;BME280;10162;41.600;23.806;2023-01-24T03:08:01;96059.81;;;6.69;100.00
20003;BME280;10162;41.600;23.806;2023-01-24T03:10:34;96027.75;;;6.43;100.00
20003;BME280;10162;41.600;23.806;2023-01-24T03:13:00;96071.94;;;6.60;100.00
20003;BME280;10162;41.600;23.806;2023-01-24T03:15:49;96056.97;;;6.45;100.00
20003;BME280;10162;41.600;23.806;2023-01-24T03:22:10;96035.34;;;6.27;100.00
20003;BME280;10162;41.600;23.806;2023-01-24T03:24:55;96044.19;;;6.34;100.00
20003;BME280;10162;41.600;23.806;2023-01-24T03:31:05;96022.59;;;6.33;100.00
20003;BME280;10162;41.600;23.806;2023-01-24T03:33:52;96015.59;;;6.16;100.00
20003;BME280;10162;41.600;23.806;2023-01-24T03:36:56;96054.38;;;6.45;100.00
20003;BME280;10162;41.600;23.806;2023-01-24T03:39:24;96042.75;;;6.21;100.00
20003;BME280;10162;41.600;23.806;2023-01-24T03:42:08;96024.94;;;6.09;100.00
20003;BME280;10162;41.600;23.806;2023-01-24T03:44:34;96028.16;;;5.93;100.00
20003;BME280;10162;41.600;23.806;2023-01-24T03:50:56;96005.78;;;5.92;100.00
20003;BME280;10162;41.600;23.806;2023-01-24T03:53:42;96021.28;;;6.02;100.00
20003;BME280;10162;41.600;23.806;2023-01-24T03:56:07;96024.03;;;6.00;100.00
20003;BME280;10162;41.600;23.806;2023-01-24T04:02:00;96018.41;;;6.05;100.00
20003;BME280;10162;41.600;23.806;2023-01-24T04:04:33;96014.56;;;6.09;100.00
20003;BME280;10162;41.600;23.806;2023-01-24T04:07:31;96048.19;;;6.28;100.00
20003;BME280;10162;41.600;23.806;2023-01-24T04:10:01;96021.91;;;6.13;100.00
20003;BME280;10162;41.600;23.806;2023-01-24T04:12:31;96004.69;;;6.12;100.00
20003;BME280;10162;41.600;23.806;2023-01-24T04:14:58;96042.97;;;6.38;100.00
20003;BME280;10162;41.600;23.806;2023-01-24T04:17:46;96045.50;;;6.47;100.00
20003;BME280;10162;41.600;23.806;2023-01-24T04:20:13;96036.66;;;6.13;100.00
20003;BME280;10162;41.600;23.806;2023-01-24T04:22:40;96036.44;;;6.06;100.00
20003;BME280;10162;41.600;23.806;2023-01-24T04:25:08;96030.34;;;6.15;100.00
20003;BME280;10162;41.600;23.806;2023-01-24T04:28:08;96043.47;;;6.41;100.00
20003;BME280;10162;41.600;23.806;2023-01-24T04:30:36;96039.41;;;6.11;100.00
20003;BME280;10162;41.600;23.806;2023-01-24T04:33:05;96025.56;;;5.93;100.00
20003;BME280;10162;41.600;23.806;2023-01-24T04:35:33;96038.69;;;5.92;100.00
20003;BME280;10162;41.600;23.806;2023-01-24T04:38:36;96057.19;;;6.06;100.00
20003;BME280;10162;41.600;23.806;2023-01-24T04:41:08;96044.28;;;5.87;100.00
20003;BME280;10162;41.600;23.806;2023-01-24T04:43:40;96034.47;;;5.81;100.00
20003;BME280;10162;41.600;23.806;2023-01-24T04:46:06;96047.06;;;6.13;100.00
20003;BME280;10162;41.600;23.806;2023-01-24T04:56:29;96030.66;;;6.12;100.00
20003;BME280;10162;41.600;23.806;2023-01-24T05:02:19;96046.72;;;6.26;100.00
20003;BME280;10162;41.600;23.806;2023-01-24T05:04:46;96037.50;;;6.13;100.00
20003;BME280;10162;41.600;23.806;2023-01-24T05:07:21;96062.81;;;6.29;100.00
20003;BME280;10162;41.600;23.806;2023-01-24T05:09:54;96029.22;;;6.00;100.00
20003;BME280;10162;41.600;23.806;2023-01-24T05:12:21;96055.28;;;6.08;100.00
20003;BME280;10162;41.600;23.806;2023-01-24T05:14:47;96039.75;;;5.99;100.00
20003;BME280;10162;41.600;23.806;2023-01-24T05:18:00;96084.75;;;6.17;100.00
20003;BME280;10162;41.600;23.806;2023-01-24T05:20:26;96084.50;;;6.10;100.00
20003;BME280;10162;41.600;23.806;2023-01-24T05:22:57;96071.69;;;5.99;100.00
20003;BME280;10162;41.600;23.806;2023-01-24T05:25:24;96081.19;;;5.91;100.00
20003;BME280;10162;41.600;23.806;2023-01-24T05:30:46;96093.47;;;5.79;100.00
20003;BME280;10162;41.600;23.806;2023-01-24T05:33:20;96092.81;;;5.67;100.00
20003;BME280;10162;41.600;23.806;2023-01-24T05:35:46;96052.75;;;5.52;100.00
20003;BME280;10162;41.600;23.806;2023-01-24T05:38:37;96103.66;;;6.00;100.00
20003;BME280;10162;41.600;23.806;2023-01-24T05:41:08;96099.44;;;5.99;100.00
20003;BME280;10162;41.600;23.806;2023-01-24T05:43:35;96097.97;;;5.87;100.00
20003;BME280;10162;41.600;23.806;2023-01-24T05:46:13;96121.06;;;5.90;100.00
20003;BME280;10162;41.600;23.806;2023-01-24T05:49:02;96104.69;;;5.79;100.00
20003;BME280;10162;41.600;23.806;2023-01-24T05:51:28;96125.63;;;6.05;100.00
20003;BME280;10162;41.600;23.806;2023-01-24T05:53:54;96109.03;;;5.89;100.00
20003;BME280;10162;41.600;23.806;2023-01-24T05:56:40;96127.00;;;6.09;100.00
20003;BME280;10162;41.600;23.806;2023-01-24T05:59:14;96106.72;;;5.86;100.00
20003;BME280;10162;41.600;23.806;2023-01-24T06:01:42;96094.81;;;5.83;100.00
20003;BME280;10162;41.600;23.806;2023-01-24T06:04:09;96131.00;;;5.94;100.00
20003;BME280;10162;41.600;23.806;2023-01-24T06:06:35;96118.47;;;5.90;100.00
20003;BME280;10162;41.600;23.806;2023-01-24T06:09:11;96119.53;;;5.97;100.00
20003;BME280;10162;41.600;23.806;2023-01-24T06:11:39;96120.06;;;6.00;100.00
20003;BME280;10162;41.600;23.806;2023-01-24T06:14:16;96119.53;;;5.97;100.00
20003;BME280;10162;41.600;23.806;2023-01-24T06:16:44;96103.84;;;5.79;100.00
20003;BME280;10162;41.600;23.806;2023-01-24T06:19:25;96129.09;;;5.96;100.00
20003;BME280;10162;41.600;23.806;2023-01-24T06:24:24;96130.34;;;5.82;100.00
20003;BME280;10162;41.600;23.806;2023-01-24T06:30:32;96150.25;;;6.01;100.00
20003;BME280;10162;41.600;23.806;2023-01-24T06:41:17;96155.78;;;5.60;100.00
20003;BME280;10162;41.600;23.806;2023-01-24T06:43:44;96186.47;;;5.83;100.00
20003;BME280;10162;41.600;23.806;2023-01-24T06:46:13;96163.81;;;5.66;100.00
20003;BME280;10162;41.600;23.806;2023-01-24T06:48:44;96169.94;;;5.85;100.00
20003;BME280;10162;41.600;23.806;2023-01-24T06:51:13;96194.00;;;5.87;100.00
20003;BME280;10162;41.600;23.806;2023-01-24T06:53:42;96196.88;;;5.74;100.00
20003;BME280;10162;41.600;23.806;2023-01-24T06:56:08;96165.19;;;5.61;100.00
20003;BME280;10162;41.600;23.806;2023-01-24T06:58:50;96186.75;;;5.71;100.00
20003;BME280;10162;41.600;23.806;2023-01-24T07:01:16;96172.28;;;5.59;100.00
20003;BME280;10162;41.600;23.806;2023-01-24T07:03:41;96185.25;;;5.59;100.00
20003;BME280;10162;41.600;23.806;2023-01-24T07:06:17;96199.44;;;5.64;100.00
20003;BME280;10162;41.600;23.806;2023-01-24T07:08:52;96179.25;;;5.58;100.00
20003;BME280;10162;41.600;23.806;2023-01-24T07:11:27;96187.63;;;5.52;100.00
20003;BME280;10162;41.600;23.806;2023-01-24T07:18:11;96176.41;;;5.61;100.00
20003;BME280;10162;41.600;23.806;2023-01-24T07:20:37;96181.69;;;5.79;100.00
20003;BME280;10162;41.600;23.806;2023-01-24T07:23:18;96168.34;;;5.55;100.00
20003;BME280;10162;41.600;23.806;2023-01-24T07:29:29;96208.44;;;6.08;100.00
20003;BME280;10162;41.600;23.806;2023-01-24T07:32:07;96185.50;;;5.85;100.00
20003;BME280;10162;41.600;23.806;2023-01-24T07:34:34;96196.59;;;5.96;100.00
20003;BME280;10162;41.600;23.806;2023-01-24T07:37:00;96183.47;;;5.88;100.00
20003;BME280;10162;41.600;23.806;2023-01-24T07:39:28;96209.44;;;6.35;100.00
20003;BME280;10162;41.600;23.806;2023-01-24T07:41:54;96168.31;;;5.93;100.00
20003;BME280;10162;41.600;23.806;2023-01-24T07:44:21;96171.28;;;5.98;100.00
20003;BME280;10162;41.600;23.806;2023-01-24T07:46:46;96206.06;;;6.25;100.00
20003;BME280;10162;41.600;23.806;2023-01-24T07:49:24;96193.66;;;6.18;100.00
20003;BME280;10162;41.600;23.806;2023-01-24T07:51:54;96215.78;;;6.22;100.00
20003;BME280;10162;41.600;23.806;2023-01-24T07:54:26;96231.31;;;6.42;100.00
20003;BME280;10162;41.600;23.806;2023-01-24T07:57:13;96216.31;;;6.26;100.00
20003;BME280;10162;41.600;23.806;2023-01-24T07:59:41;96215.69;;;6.14;100.00
20003;BME280;10162;41.600;23.806;2023-01-24T08:02:10;96218.00;;;6.08;100.00
20003;BME280;10162;41.600;23.806;2023-01-24T08:04:37;96247.88;;;6.31;100.00
20003;BME280;10162;41.600;23.806;2023-01-24T08:07:02;96226.59;;;6.18;100.00
20003;BME280;10162;41.600;23.806;2023-01-24T08:09:45;96242.94;;;6.38;100.00
20003;BME280;10162;41.600;23.806;2023-01-24T08:12:11;96224.78;;;6.28;100.00
20003;BME280;10162;41.600;23.806;2023-01-24T08:14:38;96210.09;;;6.09;100.00
20003;BME280;10162;41.600;23.806;2023-01-24T08:17:13;96227.66;;;6.25;100.00
20003;BME280;10162;41.600;23.806;2023-01-24T08:19:40;96230.69;;;6.20;100.00
20003;BME280;10162;41.600;23.806;2023-01-24T08:22:06;96243.91;;;6.27;100.00
20003;BME280;10162;41.600;23.806;2023-01-24T08:24:32;96230.69;;;6.20;100.00
20003;BME280;10162;41.600;23.806;2023-01-24T08:27:09;96239.69;;;6.26;100.00
20003;BME280;10162;41.600;23.806;2023-01-24T08:29:36;96234.72;;;6.33;100.00
20003;BME280;10162;41.600;23.806;2023-01-24T08:32:11;96218.97;;;6.07;100.00
20003;BME280;10162;41.600;23.806;2023-01-24T08:34:36;96243.25;;;6.25;100.00
20003;BME280;10162;41.600;23.806;2023-01-24T08:37:03;96226.56;;;6.28;100.00
20003;BME280;10162;41.600;23.806;2023-01-24T08:39:29;96192.66;;;5.92;100.00
20003;BME280;10162;41.600;23.806;2023-01-24T08:41:56;96214.84;;;6.14;100.00
20003;BME280;10162;41.600;23.806;2023-01-24T08:44:21;96219.13;;;5.86;100.00
20003;BME280;10162;41.600;23.806;2023-01-24T08:46:47;96246.16;;;6.12;100.00
20003;BME280;10162;41.600;23.806;2023-01-24T08:49:28;96225.53;;;5.72;100.00
20003;BME280;10162;41.600;23.806;2023-01-24T08:51:54;96251.09;;;5.87;100.00
20003;BME280;10162;41.600;23.806;2023-01-24T08:54:28;96248.75;;;6.03;100.00
20003;BME280;10162;41.600;23.806;2023-01-24T08:56:55;96261.88;;;6.01;100.00
20003;BME280;10162;41.600;23.806;2023-01-24T08:59:21;96227.75;;;5.58;100.00
20003;BME280;10162;41.600;23.806;2023-01-24T09:01:48;96246.28;;;5.72;100.00
20003;BME280;10162;41.600;23.806;2023-01-24T09:04:14;96211.22;;;5.49;100.00
20003;BME280;10162;41.600;23.806;2023-01-24T09:06:40;96246.72;;;5.97;100.00
20003;BME280;10162;41.600;23.806;2023-01-24T09:09:25;96245.78;;;5.98;100.00
20003;BME280;10162;41.600;23.806;2023-01-24T09:11:51;96229.47;;;6.15;100.00
20003;BME280;10162;41.600;23.806;2023-01-24T09:14:18;96231.78;;;6.18;100.00
20003;BME280;10162;41.600;23.806;2023-01-24T09:16:45;96240.09;;;6.31;100.00
20003;BME280;10162;41.600;23.806;2023-01-24T09:19:11;96230.84;;;6.00;100.00
20003;BME280;10162;41.600;23.806;2023-01-24T09:21:38;96208.22;;;5.92;100.00
20003;BME280;10162;41.600;23.806;2023-01-24T09:24:04;96241.97;;;6.39;100.00
20003;BME280;10162;41.600;23.806;2023-01-24T09:26:30;96206.94;;;6.06;100.00
20003;BME280;10162;41.600;23.806;2023-01-24T09:32:50;96224.25;;;6.25;100.00
20003;BME280;10162;41.600;23.806;2023-01-24T09:35:16;96210.75;;;6.11;100.00
20003;BME280;10162;41.600;23.806;2023-01-24T09:37:46;96224.28;;;6.15;100.00
20003;BME280;10162;41.600;23.806;2023-01-24T09:40:23;96233.47;;;6.09;100.00
20003;BME280;10162;41.600;23.806;2023-01-24T09:45:34;96222.41;;;5.78;100.00
20003;BME280;10162;41.600;23.806;2023-01-24T09:48:13;96189.63;;;5.68;100.00
20003;BME280;10162;41.600;23.806;2023-01-24T09:50:45;96217.34;;;5.96;100.00
20003;BME280;10162;41.600;23.806;2023-01-24T09:53:21;96186.47;;;6.03;100.00
20003;BME280;10162;41.600;23.806;2023-01-24T09:55:49;96197.28;;;6.35;100.00
20003;BME280;10162;41.600;23.806;2023-01-24T09:58:35;96208.38;;;6.28;100.00
20003;BME280;10162;41.600;23.806;2023-01-24T10:01:11;96211.59;;;6.49;100.00
20003;BME280;10162;41.600;23.806;2023-01-24T10:03:38;96195.31;;;6.47;100.00
20003;BME280;10162;41.600;23.806;2023-01-24T10:06:14;96199.63;;;6.93;100.00
20003;BME280;10162;41.600;23.806;2023-01-24T10:12:57;96201.66;;;6.89;100.00
20003;BME280;10162;41.600;23.806;2023-01-24T10:15:45;96191.53;;;6.41;100.00
20003;BME280;10162;41.600;23.806;2023-01-24T10:18:34;96195.28;;;6.84;100.00
20003;BME280;10162;41.600;23.806;2023-01-24T10:21:16;96189.03;;;6.77;100.00
20003;BME280;10162;41.600;23.806;2023-01-24T10:31:25;96157.59;;;7.51;100.00
20003;BME280;10162;41.600;23.806;2023-01-24T10:33:39;96169.22;;;7.46;100.00
20003;BME280;10162;41.600;23.806;2023-01-24T10:36:22;96183.75;;;7.49;100.00
20003;BME280;10162;41.600;23.806;2023-01-24T10:38:53;96166.06;;;6.99;100.00
20003;BME280;10162;41.600;23.806;2023-01-24T12:09:59;96112.22;;;8.31;100.00
20003;BME280;10162;41.600;23.806;2023-01-24T12:12:43;96080.25;;;7.95;100.00
20003;BME280;10162;41.600;23.806;2023-01-24T12:20:51;96097.41;;;8.97;100.00
20003;BME280;10162;41.600;23.806;2023-01-24T12:23:35;96075.75;;;8.31;100.00
20003;BME280;10162;41.600;23.806;2023-01-24T12:26:17;96079.72;;;8.51;100.00
20003;BME280;10162;41.600;23.806;2023-01-24T12:34:50;96094.03;;;8.13;100.00
20003;BME280;10162;41.600;23.806;2023-01-24T12:37:38;96072.97;;;7.46;100.00
20003;BME280;10162;41.600;23.806;2023-01-24T12:40:35;96093.63;;;8.76;100.00
20003;BME280;10162;41.600;23.806;2023-01-24T12:45:59;96094.75;;;8.65;100.00
20003;BME280;10162;41.600;23.806;2023-01-24T12:48:39;96086.41;;;8.53;100.00
20003;BME280;10162;41.600;23.806;2023-01-24T12:51:27;96080.16;;;9.04;100.00
20003;BME280;10162;41.600;23.806;2023-01-24T12:59:10;96073.63;;;9.25;100.00
20003;BME280;10162;41.600;23.806;2023-01-24T13:04:50;96074.28;;;9.10;100.00
20003;BME280;10162;41.600;23.806;2023-01-24T13:13:34;96073.31;;;9.20;100.00
20003;BME280;10162;41.600;23.806;2023-01-24T13:22:06;96080.63;;;8.92;99.59
20003;BME280;10162;41.600;23.806;2023-01-24T13:32:39;96082.34;;;8.67;98.17
20003;BME280;10162;41.600;23.806;2023-01-24T13:35:18;96082.69;;;8.64;100.00
20003;BME280;10162;41.600;23.806;2023-01-24T13:40:25;96062.25;;;8.43;100.00
20003;BME280;10162;41.600;23.806;2023-01-24T13:51:57;96095.88;;;8.62;100.00
20003;BME280;10162;41.600;23.806;2023-01-24T13:54:36;96093.56;;;8.51;100.00
20003;BME280;10162;41.600;23.806;2023-01-24T14:00:17;96085.25;;;8.56;100.00
20003;BME280;10162;41.600;23.806;2023-01-24T14:10:32;96083.75;;;8.45;100.00
20003;BME280;10162;41.600;23.806;2023-01-24T14:19:21;96088.91;;;8.03;100.00
20003;BME280;10162;41.600;23.806;2023-01-24T14:25:11;96088.50;;;8.16;100.00
20003;BME280;10162;41.600;23.806;2023-01-24T14:29:46;96089.94;;;8.10;100.00
20003;BME280;10162;41.600;23.806;2023-01-24T14:32:27;96098.81;;;7.92;100.00
20003;BME280;10162;41.600;23.806;2023-01-24T14:35:08;96077.06;;;7.49;100.00
20003;BME280;10162;41.600;23.806;2023-01-24T14:37:39;96076.06;;;7.24;100.00
20003;BME280;10162;41.600;23.806;2023-01-24T14:40:24;96091.41;;;7.35;100.00
20003;BME280;10162;41.600;23.806;2023-01-24T14:43:02;96073.16;;;7.27;100.00
20003;BME280;10162;41.600;23.806;2023-01-24T14:45:31;96085.34;;;7.27;100.00
20003;BME280;10162;41.600;23.806;2023-01-24T14:47:58;96054.69;;;7.13;100.00
20003;BME280;10162;41.600;23.806;2023-01-24T14:50:31;96073.34;;;6.90;100.00
20003;BME280;10162;41.600;23.806;2023-01-24T14:56:21;96075.50;;;6.77;100.00
20003;BME280;10162;41.600;23.806;2023-01-24T14:58:47;96050.69;;;6.65;100.00
20003;BME280;10162;41.600;23.806;2023-01-24T15:01:30;96077.94;;;6.79;100.00
20003;BME280;10162;41.600;23.806;2023-01-24T15:04:03;96086.78;;;6.68;100.00
20003;BME280;10162;41.600;23.806;2023-01-24T15:06:30;96077.94;;;6.79;100.00
20003;BME280;10162;41.600;23.806;2023-01-24T15:09:00;96091.47;;;7.00;100.00
20003;BME280;10162;41.600;23.806;2023-01-24T15:11:33;96060.50;;;6.71;100.00
20003;BME280;10162;41.600;23.806;2023-01-24T15:14:23;96104.25;;;6.93;100.00
20003;BME280;10162;41.600;23.806;2023-01-24T15:16:55;96102.84;;;6.99;100.00
20003;BME280;10162;41.600;23.806;2023-01-24T15:19:24;96094.22;;;6.98;100.00
20003;BME280;10162;41.600;23.806;2023-01-24T15:21:55;96108.84;;;6.99;100.00
20003;BME280;10162;41.600;23.806;2023-01-24T15:35:56;96096.13;;;7.14;100.00
20003;BME280;10162;41.600;23.806;2023-01-24T15:38:24;96088.34;;;6.96;100.00
20003;BME280;10162;41.600;23.806;2023-01-24T15:41:12;96110.91;;;7.14;100.00
20003;BME280;10162;41.600;23.806;2023-01-24T15:47:35;96102.53;;;7.02;100.00
20003;BME280;10162;41.600;23.806;2023-01-24T15:50:20;96108.84;;;6.99;100.00
20003;BME280;10162;41.600;23.806;2023-01-24T15:53:25;96127.13;;;7.07;100.00
20003;BME280;10162;41.600;23.806;2023-01-24T15:55:59;96133.59;;;7.03;100.00
20003;BME280;10162;41.600;23.806;2023-01-24T15:58:29;96126.47;;;7.05;100.00
20003;BME280;10162;41.600;23.806;2023-01-24T16:00:58;96111.47;;;6.99;100.00
20003;BME280;10162;41.600;23.806;2023-01-24T16:03:28;96128.28;;;6.95;100.00
20003;BME280;10162;41.600;23.806;2023-01-24T16:05:54;96138.19;;;6.92;100.00
20003;BME280;10162;41.600;23.806;2023-01-24T16:08:20;96121.22;;;6.70;100.00
20003;BME280;10162;41.600;23.806;2023-01-24T16:10:50;96098.09;;;6.49;100.00
20003;BME280;10162;41.600;23.806;2023-01-24T16:13:40;96133.81;;;6.47;100.00
20003;BME280;10162;41.600;23.806;2023-01-24T16:16:10;96142.25;;;6.49;100.00
20003;BME280;10162;41.600;23.806;2023-01-24T16:18:37;96137.75;;;6.51;100.00
20003;BME280;10162;41.600;23.806;2023-01-24T16:21:04;96132.41;;;6.26;100.00
20003;BME280;10162;41.600;23.806;2023-01-24T16:23:38;96143.06;;;6.22;100.00
20003;BME280;10162;41.600;23.806;2023-01-24T16:26:04;96159.53;;;6.41;100.00
20003;BME280;10162;41.600;23.806;2023-01-24T16:28:30;96126.97;;;6.19;100.00
20003;BME280;10162;41.600;23.806;2023-01-24T16:38:49;96112.00;;;6.03;100.00
20003;BME280;10162;41.600;23.806;2023-01-24T16:41:15;96147.81;;;6.37;100.00
20003;BME280;10162;41.600;23.806;2023-01-24T16:43:54;96123.59;;;6.09;100.00
20003;BME280;10162;41.600;23.806;2023-01-24T16:46:21;96124.94;;;6.13;100.00
20003;BME280;10162;41.600;23.806;2023-01-24T16:48:49;96116.41;;;5.93;100.00
20003;BME280;10162;41.600;23.806;2023-01-24T16:51:18;96124.88;;;5.95;100.00
20003;BME280;10162;41.600;23.806;2023-01-24T16:57:11;96136.59;;;5.99;100.00
20003;BME280;10162;41.600;23.806;2023-01-24T16:59:37;96131.78;;;6.04;100.00
20003;BME280;10162;41.600;23.806;2023-01-24T17:10:23;96159.25;;;6.07;100.00
20003;BME280;10162;41.600;23.806;2023-01-24T17:16:33;96166.34;;;6.14;100.00
20003;BME280;10162;41.600;23.806;2023-01-24T17:19:06;96165.41;;;6.06;100.00
20003;BME280;10162;41.600;23.806;2023-01-24T17:22:23;96151.66;;;5.86;100.00
20003;BME280;10162;41.600;23.806;2023-01-24T17:24:55;96138.41;;;5.89;100.00
20003;BME280;10162;41.600;23.806;2023-01-24T17:27:25;96152.72;;;6.03;100.00
20003;BME280;10162;41.600;23.806;2023-01-24T17:29:52;96155.72;;;6.08;100.00
20003;BME280;10162;41.600;23.806;2023-01-24T17:32:18;96118.03;;;5.94;100.00
20003;BME280;10162;41.600;23.806;2023-01-24T17:34:43;96154.06;;;6.07;100.00
20003;BME280;10162;41.600;23.806;2023-01-24T17:37:09;96103.84;;;5.79;100.00
20003;BME280;10162;41.600;23.806;2023-01-24T17:39:35;96141.34;;;6.04;100.00
20003;BME280;10162;41.600;23.806;2023-01-24T17:42:01;96144.13;;;6.02;100.00
20003;BME280;10162;41.600;23.806;2023-01-24T17:44:31;96158.81;;;6.11;100.00
20003;BME280;10162;41.600;23.806;2023-01-24T17:46:57;96166.47;;;6.13;100.00
20003;BME280;10162;41.600;23.806;2023-01-24T17:49:24;96116.69;;;5.80;100.00
20003;BME280;10162;41.600;23.806;2023-01-24T17:51:50;96133.81;;;6.10;100.00
20003;BME280;10162;41.600;23.806;2023-01-24T17:54:29;96147.69;;;6.29;100.00
20003;BME280;10162;41.600;23.806;2023-01-24T17:56:56;96128.69;;;6.01;100.00
20003;BME280;10162;41.600;23.806;2023-01-24T17:59:22;96155.66;;;6.17;100.00
20003;BME280;10162;41.600;23.806;2023-01-24T18:01:48;96152.97;;;6.09;100.00
20003;BME280;10162;41.600;23.806;2023-01-24T18:04:24;96124.34;;;5.92;100.00
20003;BME280;10162;41.600;23.806;2023-01-24T18:06:52;96127.72;;;6.02;100.00
20003;BME280;10162;41.600;23.806;2023-01-24T18:09:19;96174.22;;;6.32;100.00
20003;BME280;10162;41.600;23.806;2023-01-24T18:11:46;96128.69;;;6.01;100.00
20003;BME280;10162;41.600;23.806;2023-01-24T18:14:14;96125.13;;;6.02;100.00
20003;BME280;10162;41.600;23.806;2023-01-24T18:16:41;96118.59;;;5.98;100.00
20003;BME280;10162;41.600;23.806;2023-01-24T18:19:08;96107.66;;;5.94;100.00
20003;BME280;10162;41.600;23.806;2023-01-24T18:21:38;96160.41;;;6.32;100.00
20003;BME280;10162;41.600;23.806;2023-01-24T18:24:05;96148.19;;;6.14;100.00
20003;BME280;10162;41.600;23.806;2023-01-24T18:26:34;96122.53;;;6.02;100.00
20003;BME280;10162;41.600;23.806;2023-01-24T18:29:08;96120.38;;;5.97;100.00
20003;BME280;10162;41.600;23.806;2023-01-24T18:31:34;96163.84;;;6.22;100.00
20003;BME280;10162;41.600;23.806;2023-01-24T18:34:41;96159.59;;;6.21;100.00
20003;BME280;10162;41.600;23.806;2023-01-24T18:37:08;96119.94;;;6.02;100.00
20003;BME280;10162;41.600;23.806;2023-01-24T18:39:36;96158.34;;;6.35;100.00
20003;BME280;10162;41.600;23.806;2023-01-24T18:42:02;96136.41;;;6.20;100.00
20003;BME280;10162;41.600;23.806;2023-01-24T18:45:04;96163.97;;;6.31;100.00
20003;BME280;10162;41.600;23.806;2023-01-24T18:47:35;96171.50;;;6.24;100.00
20003;BME280;10162;41.600;23.806;2023-01-24T18:50:04;96113.91;;;6.01;100.00
20003;BME280;10162;41.600;23.806;2023-01-24T18:52:37;96146.22;;;6.26;100.00